Saint Maurice, Louisiana
Current Conditions -  °F | °C
As of 3:15 AM on Sunday 21 Dec 2014 (Local Time) from KIER Reporting Station
Haze Haze  
Wind Chill: 35°   Ceiling: 100
Heat Index: 35°   Visibility: 1.7mi
Dew Point: 35°   Wind: 0mph
Humidity: 100%   Direction: NA
Pressure: 30.16"   Gusts: NA
Location:  31.76°N, 92.96°W
Report Text: KIER 210915Z AUTO 00000KT 1 3/4SM BR BKN001 02/02 A3016 RMK AO2 T00150015
Loading
Personal Weather Stations






























Interactive Weather Map New forecast layout! Learn more

10-Day Weather Forecast

Advertisements
Track Severe Weather on mobile